createdAt,value
2018-01-30T00:01:27.548Z,71.60
2018-01-30T00:03:55.034Z,71.40
2018-01-30T00:06:22.530Z,70.60
2018-01-30T00:08:50.034Z,71.40
2018-01-30T00:11:18.287Z,71.30
2018-01-30T00:13:45.791Z,71.30
2018-01-30T00:16:13.313Z,71.50
2018-01-30T00:18:40.803Z,71.30
2018-01-30T00:21:08.306Z,70.80
2018-01-30T00:23:35.802Z,71.00
2018-01-30T00:26:04.072Z,71.10
2018-01-30T00:28:32.336Z,70.60
2018-01-30T00:30:59.839Z,70.60
2018-01-30T00:33:27.335Z,70.50
2018-01-30T00:35:54.827Z,71.20
2018-01-30T00:38:23.099Z,71.10
2018-01-30T00:40:51.362Z,70.70
2018-01-30T00:43:18.854Z,70.70
2018-01-30T00:45:46.343Z,69.90
2018-01-30T00:48:13.833Z,69.50
2018-01-30T00:50:41.326Z,68.30
2018-01-30T00:53:08.811Z,68.10
2018-01-30T00:55:36.310Z,67.00
2018-01-30T00:58:03.795Z,66.70
2018-01-30T01:00:31.290Z,66.00
2018-01-30T01:02:58.790Z,65.00
2018-01-30T01:05:27.062Z,66.20
2018-01-30T01:07:54.567Z,66.40
2018-01-30T01:10:22.070Z,65.50
2018-01-30T01:12:49.579Z,64.70
2018-01-30T01:15:17.071Z,64.60
2018-01-30T01:17:44.562Z,64.70
2018-01-30T01:20:12.819Z,64.80
2018-01-30T01:22:40.329Z,64.70
2018-01-30T01:25:07.835Z,64.50
2018-01-30T01:27:35.345Z,64.40
2018-01-30T01:30:02.844Z,64.30
2018-01-30T01:32:30.330Z,64.00
2018-01-30T01:34:58.595Z,64.80
2018-01-30T01:37:26.107Z,63.90
2018-01-30T01:39:53.614Z,64.40
2018-01-30T01:42:21.113Z,63.90
2018-01-30T01:44:48.618Z,64.80
2018-01-30T01:47:16.116Z,64.30
2018-01-30T01:49:43.618Z,63.90
2018-01-30T01:52:11.107Z,64.20
2018-01-30T01:54:38.622Z,64.00
2018-01-30T01:57:06.106Z,64.50
2018-01-30T01:59:33.622Z,64.40
2018-01-30T02:02:01.136Z,64.10
2018-01-30T02:04:28.647Z,64.30
2018-01-30T02:06:56.143Z,64.30
2018-01-30T02:09:23.653Z,64.60
2018-01-30T02:11:51.164Z,64.80
2018-01-30T02:14:18.666Z,65.40
2018-01-30T02:16:46.179Z,65.50
2018-01-30T02:19:13.690Z,65.60
2018-01-30T02:21:41.190Z,65.70
2018-01-30T02:24:08.679Z,66.10
2018-01-30T02:26:36.939Z,66.00
2018-01-30T02:29:05.202Z,66.10
2018-01-30T02:31:32.693Z,66.00
2018-01-30T02:34:00.979Z,66.30
2018-01-30T02:36:28.479Z,66.20
2018-01-30T02:38:55.971Z,66.30
2018-01-30T02:41:24.226Z,66.70
2018-01-30T02:43:51.725Z,66.70
2018-01-30T02:46:19.224Z,66.80
2018-01-30T02:48:46.714Z,68.30
2018-01-30T02:51:14.211Z,68.80
2018-01-30T02:53:41.698Z,69.90
2018-01-30T02:56:09.182Z,69.30
2018-01-30T02:58:36.687Z,69.00
2018-01-30T03:01:04.193Z,69.10
2018-01-30T03:03:33.191Z,69.30
2018-01-30T03:06:00.699Z,69.20
2018-01-30T03:08:28.194Z,69.10
2018-01-30T03:10:55.695Z,69.10
2018-01-30T03:13:23.978Z,69.50
2018-01-30T03:15:51.466Z,69.40
2018-01-30T03:18:18.958Z,69.70
2018-01-30T03:20:47.219Z,70.10
2018-01-30T03:23:14.718Z,70.10
2018-01-30T03:25:42.974Z,70.50
2018-01-30T03:28:10.485Z,70.50
2018-01-30T03:30:37.981Z,70.80
2018-01-30T03:33:05.488Z,71.10
2018-01-30T03:35:32.978Z,71.20
2018-01-30T03:38:00.462Z,71.10
2018-01-30T03:40:27.960Z,71.20
2018-01-30T03:42:55.468Z,71.40
2018-01-30T03:45:22.966Z,71.60
2018-01-30T03:47:51.215Z,71.60
2018-01-30T03:50:18.723Z,71.60
2018-01-30T03:52:46.211Z,71.50
2018-01-30T03:55:13.699Z,71.20
2018-01-30T03:57:41.954Z,71.50
2018-01-30T04:00:09.456Z,71.50
2018-01-30T04:02:36.943Z,71.90
2018-01-30T04:05:04.450Z,71.80
2018-01-30T04:07:32.702Z,72.00
2018-01-30T04:10:00.980Z,71.90
2018-01-30T04:12:29.238Z,73.30
2018-01-30T04:14:56.745Z,72.50
2018-01-30T04:17:25.007Z,73.40
2018-01-30T04:19:53.280Z,73.40
2018-01-30T04:22:20.766Z,73.40
2018-01-30T04:24:48.270Z,73.90
2018-01-30T04:27:15.782Z,73.50
2018-01-30T04:29:43.283Z,73.70
2018-01-30T04:32:10.774Z,73.90
2018-01-30T04:34:39.035Z,74.00
2018-01-30T04:37:06.527Z,74.00
2018-01-30T04:39:34.780Z,73.50
2018-01-30T04:42:02.275Z,73.50
2018-01-30T04:44:29.778Z,73.70
2018-01-30T04:46:57.268Z,73.90
2018-01-30T04:49:25.522Z,74.30
2018-01-30T04:51:53.024Z,74.30
2018-01-30T04:54:20.510Z,74.40
2018-01-30T04:56:48.023Z,74.30
2018-01-30T04:59:16.279Z,74.00
2018-01-30T05:01:43.766Z,74.00
2018-01-30T05:04:11.275Z,74.60
2018-01-30T05:06:38.771Z,74.40
2018-01-30T05:09:07.034Z,74.50
2018-01-30T05:11:35.287Z,74.10
2018-01-30T05:14:02.790Z,74.10
2018-01-30T05:16:30.318Z,73.80
2018-01-30T05:18:59.343Z,73.30
2018-01-30T05:21:27.602Z,73.20
2018-01-30T05:23:55.855Z,73.00
2018-01-30T05:26:23.347Z,73.00
2018-01-30T05:28:51.606Z,73.40
2018-01-30T05:31:19.103Z,73.40
2018-01-30T05:33:46.598Z,73.70
2018-01-30T05:36:14.083Z,73.30
2018-01-30T05:38:42.342Z,72.70
2018-01-30T05:41:09.846Z,72.70
2018-01-30T05:43:37.336Z,72.60
2018-01-30T05:46:04.829Z,72.50
2018-01-30T05:48:33.099Z,72.60
2018-01-30T05:51:00.603Z,72.60
2018-01-30T05:53:28.086Z,72.50
2018-01-30T05:55:55.594Z,72.50
2018-01-30T05:58:23.846Z,70.10
2018-01-30T06:00:51.378Z,70.10
2018-01-30T06:03:18.850Z,70.30
2018-01-30T06:05:46.338Z,70.00
2018-01-30T06:08:14.594Z,69.00
2018-01-30T06:10:42.097Z,69.00
2018-01-30T06:13:09.600Z,69.60
2018-01-30T06:15:37.094Z,71.40
2018-01-30T06:18:05.349Z,74.80
2018-01-30T06:20:32.834Z,74.80
2018-01-30T06:23:00.336Z,75.20
2018-01-30T06:25:27.821Z,75.60
2018-01-30T06:27:55.326Z,76.40
2018-01-30T06:30:22.834Z,76.70
2018-01-30T06:32:51.831Z,77.20
2018-01-30T06:35:19.328Z,77.10
2018-01-30T06:37:46.834Z,77.20
2018-01-30T06:40:14.330Z,77.30
2018-01-30T06:42:42.602Z,77.70
2018-01-30T06:45:10.854Z,77.60
2018-01-30T06:47:38.341Z,78.40
2018-01-30T06:50:06.618Z,77.30
2018-01-30T06:52:34.890Z,77.30
2018-01-30T06:55:03.151Z,77.10
2018-01-30T06:57:31.419Z,77.30
2018-01-30T06:59:58.905Z,77.10
2018-01-30T07:02:27.172Z,76.60
2018-01-30T07:04:55.451Z,76.30
2018-01-30T07:07:23.702Z,76.30
2018-01-30T07:09:51.194Z,76.20
2018-01-30T07:12:19.462Z,75.50
2018-01-30T07:14:47.727Z,75.50
2018-01-30T07:17:15.986Z,75.40
2018-01-30T07:19:43.476Z,75.40
2018-01-30T07:22:11.723Z,75.30
2018-01-30T07:24:39.251Z,75.40
2018-01-30T07:27:06.731Z,75.30
2018-01-30T07:29:34.218Z,75.10
2018-01-30T07:32:02.482Z,74.80
2018-01-30T07:34:29.990Z,74.80
2018-01-30T07:36:57.498Z,75.40
2018-01-30T07:39:24.998Z,73.90
2018-01-30T07:41:52.501Z,73.60
2018-01-30T07:44:19.991Z,73.30
2018-01-30T07:46:48.251Z,72.70
2018-01-30T07:49:15.732Z,72.70
2018-01-30T07:51:43.248Z,71.90
2018-01-30T07:54:10.750Z,71.60
2018-01-30T07:56:38.243Z,71.20
2018-01-30T07:59:05.734Z,71.30
2018-01-30T08:01:33.246Z,70.80
2018-01-30T08:04:00.731Z,70.40
2018-01-30T08:06:28.231Z,69.90
2018-01-30T08:08:56.483Z,69.70
2018-01-30T08:11:25.476Z,68.70
2018-01-30T08:13:52.978Z,68.70
2018-01-30T08:16:20.471Z,68.30
2018-01-30T08:18:47.954Z,68.00
2018-01-30T08:21:15.459Z,68.00
2018-01-30T08:23:42.946Z,67.60
2018-01-30T08:26:10.442Z,67.00
2018-01-30T08:28:38.698Z,66.90
2018-01-30T08:31:06.211Z,66.80
2018-01-30T08:33:33.727Z,66.50
2018-01-30T08:36:02.005Z,65.80
2018-01-30T08:38:29.531Z,65.60
2018-01-30T08:40:57.004Z,64.70
2018-01-30T08:43:24.498Z,64.70
2018-01-30T08:45:51.991Z,64.80
2018-01-30T08:48:19.502Z,63.90
2018-01-30T08:55:23.718Z,63.90
2018-01-30T08:57:51.221Z,62.90
2018-01-30T09:00:19.474Z,64.50
2018-01-30T09:02:46.972Z,64.50
2018-01-30T09:05:14.474Z,64.10
2018-01-30T09:07:41.965Z,63.50
2018-01-30T09:10:10.218Z,63.80
2018-01-30T09:12:37.707Z,63.80
2018-01-30T09:15:05.203Z,63.70
2018-01-30T09:17:32.694Z,61.60
2018-01-30T09:20:00.182Z,61.20
2018-01-30T09:22:27.702Z,60.20
2018-01-30T09:24:55.189Z,60.70
2018-01-30T09:27:23.446Z,58.70
2018-01-30T09:29:50.954Z,58.70
2018-01-30T09:32:18.458Z,58.50
2018-01-30T09:34:45.950Z,58.80
2018-01-30T09:37:13.443Z,58.90
2018-01-30T09:39:40.925Z,58.90
2018-01-30T09:42:08.454Z,58.90
2018-01-30T09:44:35.951Z,59.10
2018-01-30T09:47:03.471Z,58.30
2018-01-30T09:49:30.990Z,58.50
2018-01-30T09:51:59.254Z,58.00
2018-01-30T09:54:27.519Z,57.90
2018-01-30T09:56:55.011Z,57.90
2018-01-30T09:59:22.506Z,57.80
2018-01-30T10:01:49.994Z,57.00
2018-01-30T10:04:18.312Z,57.30
2018-01-30T10:06:46.525Z,57.80
2018-01-30T10:09:14.023Z,57.20
2018-01-30T10:11:42.279Z,56.40
2018-01-30T10:14:09.766Z,56.40
2018-01-30T10:16:37.256Z,56.00
2018-01-30T10:19:04.750Z,55.50
2018-01-30T10:21:32.253Z,55.80
2018-01-30T10:23:59.758Z,55.40
2018-01-30T10:26:27.271Z,55.30
2018-01-30T10:28:54.762Z,56.00
2018-01-30T10:31:22.250Z,55.50
2018-01-30T10:33:49.747Z,55.80
2018-01-30T10:36:17.254Z,55.60
2018-01-30T10:38:44.738Z,55.30
2018-01-30T10:41:12.995Z,55.00
2018-01-30T10:43:40.481Z,55.00
2018-01-30T10:46:07.972Z,55.50
2018-01-30T10:48:35.470Z,55.80
2018-01-30T10:51:02.965Z,55.80
2018-01-30T10:53:30.462Z,56.00
2018-01-30T10:55:57.965Z,55.90
2018-01-30T10:58:25.494Z,56.00
2018-01-30T11:00:53.034Z,56.40
2018-01-30T11:03:20.527Z,56.50
2018-01-30T11:05:48.051Z,56.50
2018-01-30T11:08:15.550Z,56.80
2018-01-30T11:10:43.806Z,56.60
2018-01-30T11:13:11.318Z,56.60
2018-01-30T11:15:38.819Z,56.40
2018-01-30T11:18:06.325Z,56.30
2018-01-30T11:20:33.830Z,56.10
2018-01-30T11:23:01.322Z,56.10
2018-01-30T11:25:29.580Z,56.20
2018-01-30T11:27:57.884Z,56.20
2018-01-30T11:30:25.374Z,56.20
2018-01-30T11:32:52.859Z,55.90
2018-01-30T11:35:20.346Z,55.90
2018-01-30T11:37:48.616Z,56.00
2018-01-30T11:40:16.887Z,55.00
2018-01-30T11:42:45.163Z,54.80
2018-01-30T11:45:12.667Z,54.10
2018-01-30T11:47:40.198Z,53.60
2018-01-30T11:50:08.463Z,53.50
2018-01-30T11:52:36.835Z,53.20
2018-01-30T11:55:05.114Z,53.10
2018-01-30T11:57:33.391Z,53.00
2018-01-30T12:00:01.670Z,52.90
2018-01-30T12:02:29.930Z,53.60
2018-01-30T12:04:57.459Z,53.50
2018-01-30T12:07:24.954Z,53.90
2018-01-30T12:09:53.231Z,53.60
2018-01-30T12:12:21.494Z,54.20
2018-01-30T12:14:49.006Z,54.80
2018-01-30T12:17:16.518Z,56.10
2018-01-30T12:19:44.030Z,58.20
2018-01-30T12:22:11.539Z,59.10
2018-01-30T12:24:39.040Z,59.70
2018-01-30T12:27:06.534Z,61.00
2018-01-30T12:29:34.070Z,61.00
2018-01-30T12:32:01.575Z,59.40
2018-01-30T12:34:29.843Z,58.70
2018-01-30T12:36:57.367Z,58.70
2018-01-30T12:39:24.877Z,58.60
2018-01-30T12:41:53.150Z,58.40
2018-01-30T12:44:21.430Z,58.40
2018-01-30T12:46:49.694Z,58.30
2018-01-30T12:49:17.962Z,58.30
2018-01-30T12:51:45.462Z,58.20
2018-01-30T12:54:12.962Z,58.40
2018-01-30T12:56:40.474Z,58.80
2018-01-30T12:59:08.010Z,59.30
2018-01-30T13:01:36.279Z,60.50
2018-01-30T13:04:03.781Z,60.40
2018-01-30T13:06:31.282Z,60.80
2018-01-30T13:08:59.571Z,61.60
2018-01-30T13:11:27.069Z,61.60
2018-01-30T13:13:54.568Z,61.90
2018-01-30T13:16:22.067Z,62.90
2018-01-30T13:18:50.369Z,63.00
2018-01-30T13:21:17.889Z,62.90
2018-01-30T13:23:46.174Z,59.90
2018-01-30T13:26:13.706Z,59.90
2018-01-30T13:28:41.227Z,58.10
2018-01-30T13:31:09.487Z,55.60
2018-01-30T13:33:36.978Z,55.50
2018-01-30T13:36:04.496Z,51.70
2018-01-30T13:38:32.018Z,49.10
2018-01-30T13:40:59.538Z,46.20
2018-01-30T13:43:27.046Z,44.00
2018-01-30T13:45:55.323Z,40.40
2018-01-30T13:48:23.595Z,37.60
2018-01-30T13:50:51.083Z,37.60
2018-01-30T13:53:18.575Z,35.30
2018-01-30T13:55:46.066Z,33.40
2018-01-30T13:58:14.339Z,33.00
2018-01-30T14:00:43.107Z,33.50
2018-01-30T14:03:10.594Z,33.50
2018-01-30T14:05:38.114Z,31.60
2018-01-30T14:08:05.602Z,31.70
2018-01-30T14:10:33.096Z,32.60
2018-01-30T14:13:01.348Z,30.70
2018-01-30T14:15:28.858Z,30.70
2018-01-30T14:17:56.351Z,30.60
2018-01-30T14:20:23.848Z,30.10
2018-01-30T14:22:51.346Z,30.60
2018-01-30T14:25:18.853Z,31.60
2018-01-30T14:27:47.123Z,30.70
2018-01-30T14:30:15.382Z,30.90
2018-01-30T14:32:44.382Z,34.50
2018-01-30T14:35:12.682Z,38.00
2018-01-30T14:37:40.182Z,37.80
2018-01-30T14:40:07.674Z,40.90
2018-01-30T14:42:35.175Z,43.20
2018-01-30T14:45:02.675Z,46.50
2018-01-30T14:47:30.195Z,49.20
2018-01-30T14:49:57.710Z,50.80
2018-01-30T14:52:25.974Z,53.70
2018-01-30T14:54:53.484Z,53.70
2018-01-30T14:57:21.018Z,54.40
2018-01-30T14:59:49.294Z,55.80
2018-01-30T15:02:16.810Z,55.90
2018-01-30T15:04:44.329Z,56.70
2018-01-30T15:07:11.831Z,57.30
2018-01-30T15:09:39.330Z,57.90
2018-01-30T15:12:06.834Z,59.00
2018-01-30T15:14:34.322Z,59.30
2018-01-30T15:17:01.815Z,59.60
2018-01-30T15:19:29.313Z,60.70
2018-01-30T15:21:56.823Z,60.80
2018-01-30T15:24:25.078Z,61.80
2018-01-30T15:26:52.615Z,61.90
2018-01-30T15:29:20.123Z,62.40
2018-01-30T15:31:47.640Z,63.10
2018-01-30T15:34:15.129Z,63.40
2018-01-30T15:36:43.383Z,63.80
2018-01-30T15:39:10.871Z,63.80
2018-01-30T15:41:38.368Z,64.50
2018-01-30T15:44:05.878Z,64.80
2018-01-30T15:46:34.147Z,64.60
2018-01-30T15:49:02.432Z,64.90
2018-01-30T15:51:30.692Z,65.30
2018-01-30T15:53:58.187Z,65.20
2018-01-30T15:56:25.694Z,65.40
2018-01-30T15:58:53.178Z,66.00
2018-01-30T16:01:21.457Z,66.60
2018-01-30T16:03:49.726Z,66.50
2018-01-30T16:06:17.989Z,66.90
2018-01-30T16:08:45.496Z,66.80
2018-01-30T16:11:12.994Z,67.40
2018-01-30T16:13:40.486Z,67.50
2018-01-30T16:16:08.767Z,67.50
2018-01-30T16:18:36.259Z,67.50
2018-01-30T16:21:03.747Z,68.10
2018-01-30T16:23:31.252Z,68.10
2018-01-30T16:25:58.745Z,68.30
2018-01-30T16:28:26.227Z,69.20
2018-01-30T16:30:53.716Z,68.80
2018-01-30T16:33:21.223Z,69.20
2018-01-30T16:35:48.726Z,69.30
2018-01-30T16:38:16.995Z,69.80
2018-01-30T16:40:45.263Z,70.10
2018-01-30T16:43:13.522Z,70.00
2018-01-30T16:45:41.006Z,70.00
2018-01-30T16:48:09.268Z,70.30
2018-01-30T16:50:36.750Z,70.30
2018-01-30T16:53:04.263Z,70.30
2018-01-30T16:55:31.766Z,70.20
2018-01-30T16:58:00.028Z,69.60
2018-01-30T17:00:28.311Z,69.50
2018-01-30T17:02:56.570Z,69.40
2018-01-30T17:05:24.071Z,69.40
2018-01-30T17:07:51.562Z,69.50
2018-01-30T17:10:19.062Z,69.40
2018-01-30T17:12:47.318Z,69.10
2018-01-30T17:15:14.815Z,69.10
2018-01-30T17:17:42.310Z,69.20
2018-01-30T17:20:09.811Z,69.20
2018-01-30T17:22:38.074Z,69.50
2018-01-30T17:25:05.567Z,69.50
2018-01-30T17:27:33.058Z,69.60
2018-01-30T17:30:00.555Z,69.60
2018-01-30T17:32:28.816Z,69.10
2018-01-30T17:34:56.317Z,69.00
2018-01-30T17:37:23.803Z,68.90
2018-01-30T17:39:51.295Z,68.90
2018-01-30T17:42:19.558Z,69.20
2018-01-30T17:44:47.047Z,69.20
2018-01-30T17:47:15.315Z,69.50
2018-01-30T17:49:43.585Z,69.40
2018-01-30T17:52:11.072Z,69.40
2018-01-30T17:54:38.559Z,69.70
2018-01-30T17:57:06.048Z,69.80
2018-01-30T17:59:33.565Z,70.00
2018-01-30T18:02:01.115Z,70.10
2018-01-30T18:04:28.602Z,70.40
2018-01-30T18:06:56.103Z,70.70
2018-01-30T18:09:24.364Z,70.70
2018-01-30T18:11:51.867Z,70.50
2018-01-30T18:14:19.362Z,71.50
2018-01-30T18:16:46.889Z,70.80
2018-01-30T18:19:14.374Z,71.20
2018-01-30T18:21:41.886Z,71.30
2018-01-30T18:24:09.387Z,71.30
2018-01-30T18:26:36.871Z,71.50
2018-01-30T18:29:04.359Z,71.60
2018-01-30T18:31:31.847Z,71.60
2018-01-30T18:33:59.342Z,71.60
2018-01-30T18:36:26.875Z,71.70
2018-01-30T18:38:54.362Z,71.70
2018-01-30T18:41:21.850Z,71.60
2018-01-30T18:43:49.344Z,72.50
2018-01-30T18:46:16.836Z,72.30
2018-01-30T18:48:44.334Z,72.40
2018-01-30T18:51:11.831Z,73.30
2018-01-30T18:53:39.334Z,72.90
2018-01-30T18:56:07.587Z,72.90
2018-01-30T18:58:35.079Z,72.70
2018-01-30T19:01:03.322Z,72.90
2018-01-30T19:03:30.830Z,72.90
2018-01-30T19:05:58.316Z,72.70
2018-01-30T19:08:25.795Z,72.70
2018-01-30T19:10:53.288Z,72.50
2018-01-30T19:13:20.778Z,72.70
2018-01-30T19:15:48.270Z,72.40
2018-01-30T19:18:16.550Z,72.50
2018-01-30T19:20:44.806Z,72.70
2018-01-30T19:23:12.335Z,72.60
2018-01-30T19:25:39.850Z,72.70
2018-01-30T19:28:08.118Z,72.80
2018-01-30T19:30:35.612Z,72.80
2018-01-30T19:33:03.126Z,72.60
2018-01-30T19:35:30.630Z,72.70
2018-01-30T19:37:58.126Z,72.90
2018-01-30T19:40:25.614Z,72.90
2018-01-30T19:42:53.886Z,73.30
2018-01-30T19:45:22.146Z,72.70
2018-01-30T19:47:49.642Z,73.40
2018-01-30T19:50:17.151Z,74.40
2018-01-30T19:52:44.652Z,73.80
2018-01-30T19:55:12.907Z,74.10
2018-01-30T19:57:40.401Z,74.00
2018-01-30T20:00:07.902Z,74.10
2018-01-30T20:02:35.402Z,74.20
2018-01-30T20:05:03.659Z,74.00
2018-01-30T20:07:31.162Z,74.00
2018-01-30T20:09:58.668Z,74.20
2018-01-30T20:12:26.162Z,74.30
2018-01-30T20:14:53.687Z,74.60
2018-01-30T20:17:26.909Z,75.50
2018-01-30T20:19:55.186Z,75.00
2018-01-30T20:22:23.460Z,75.20
2018-01-30T20:24:51.038Z,75.20
2018-01-30T20:27:18.527Z,75.00
2018-01-30T20:29:46.022Z,75.10
2018-01-30T20:32:14.286Z,74.80
2018-01-30T20:34:41.778Z,74.80
2018-01-30T20:37:15.066Z,75.60
2018-01-30T20:39:42.571Z,74.80
2018-01-30T20:42:10.066Z,74.60
2018-01-30T20:44:38.334Z,74.80
2018-01-30T20:47:05.856Z,74.80
2018-01-30T20:49:33.347Z,74.70
2018-01-30T20:52:00.837Z,74.50
2018-01-30T20:54:28.348Z,74.80
2018-01-30T20:56:55.859Z,73.60
2018-01-30T20:59:23.359Z,71.90
2018-01-30T21:01:50.858Z,71.30
2018-01-30T21:04:19.134Z,71.30
2018-01-30T21:06:46.634Z,71.30
2018-01-30T21:09:14.134Z,71.30
2018-01-30T21:11:42.400Z,72.00
2018-01-30T21:14:09.886Z,71.20
2018-01-30T21:16:38.158Z,71.00
2018-01-30T21:19:06.438Z,70.90
2018-01-30T21:21:34.709Z,70.70
2018-01-30T21:24:02.971Z,70.90
2018-01-30T21:26:30.465Z,70.90
2018-01-30T21:28:57.970Z,71.00
2018-01-30T21:31:25.621Z,71.00
2018-01-30T21:33:53.150Z,71.10
2018-01-30T21:36:20.650Z,71.40
2018-01-30T21:38:48.167Z,71.70
2018-01-30T21:41:15.678Z,71.60
2018-01-30T21:43:43.167Z,71.30
2018-01-30T21:46:10.679Z,70.90
2018-01-30T21:48:38.171Z,71.10
2018-01-30T21:51:06.430Z,71.30
2018-01-30T21:53:33.924Z,71.20
2018-01-30T21:56:01.427Z,71.40
2018-01-30T21:58:28.931Z,71.50
2018-01-30T22:00:57.225Z,71.50
2018-01-30T22:03:24.727Z,71.50
2018-01-30T22:05:52.215Z,71.60
2018-01-30T22:08:20.479Z,71.70
2018-01-30T22:10:47.973Z,71.70
2018-01-30T22:13:15.483Z,71.50
2018-01-30T22:15:42.975Z,71.60
2018-01-30T22:18:11.269Z,71.40
2018-01-30T22:20:38.779Z,71.30
2018-01-30T22:23:06.271Z,71.10
2018-01-30T22:25:33.770Z,70.90
2018-01-30T22:28:01.275Z,70.80
2018-01-30T22:30:29.547Z,70.50
2018-01-30T22:32:57.810Z,70.70
2018-01-30T22:35:25.313Z,70.60
2018-01-30T22:37:52.818Z,71.20
2018-01-30T22:40:20.310Z,71.60
2018-01-30T22:42:48.567Z,71.30
2018-01-30T22:45:16.831Z,71.50
